Alveley, United Kingdom
Current Conditions -  °F | °C
As of 1:20 PM on Friday 19 Dec 2014 (Local Time) from EGBB Reporting Station
Broken Clouds Broken Clouds  
Wind Chill: 41°   Ceiling: 4300
Heat Index: 46°   Visibility: 6mi
Dew Point: 36°   Wind: 13mph
Humidity: 66%   Direction: 270°W
Pressure: 29.97"   Gusts: NA
Location:  52.46°N, 2.35°W
Report Text: EGBB 191320Z AUTO 27011KT 9999 FEW009/// SCT036/// BKN043/// 08/02 Q1015
Loading
Personal Weather Stations






























Interactive Weather Map New forecast layout! Learn more

10-Day Weather Forecast

Advertisements
Track Severe Weather on mobile